Terminal Aerodrome Forecast
Issued by NWS Newport/Morehead City, NC

Home | Current Version | Previous Version | Text Only | Print | Product List | Glossary On
Versions: 1 2 3 4 5 6 7 8 9 10 11 12 13 14 15 16 17 18 19
000
FTUS42 KMHX 270800 AAA
TAFEWN
TAF AMD
KEWN 270807Z 2708/2806 20003KT P6SM SKC
      TEMPO 2708/2712 4SM BR
     FM271700 23008KT P6SM SCT040
     FM280100 20010KT P6SM SKC=

USA.gov is the U.S. government's official web portal to all federal, state and local government web resources and services.